Airport Name : Brownsville South Padre Island Intl

Other Name : Brownsville S

ICAO : KBRO

IATA : BRO

FAA : BRO

Latitude : 25.906833

Longitude : -97.425861

Country : United States

Local Date and Time : 21 Jul 2024 20:23

 

TAF (Terminal Aerodrome Forecast)

KBRO 212336Z 2200/2224 14015G22KT P6SM SKC FM221300 15013G20KT P6SM SCT050 TEMPO 2213/2217 TSRA BKN030CB

 

METAR (METeorological Aerodrome Report)

KBRO 220053Z 14010KT 10SM CLR 31/24 A2994 RMK AO2 SLP138 T03060239 $

KBRO 212353Z 13015KT 10SM CLR 32/23 A2993 RMK AO2 SLP133 T03170233 10361 20283 53006 $

KBRO 212253Z 14017G24KT 10SM CLR 33/23 A2992 RMK AO2 SLP131 T03280228 $

KBRO 212153Z 15015G24KT 10SM CLR 35/24 A2991 RMK AO2 SLP128 T03500239 $